Time;durP1;ratioP1;P1;durP2;ratioP2;P2;SDS_P1;SDS_P2;PMS_P1;PMS_P2;Temp;Humidity;BMP_temperature;BMP_pressure;BME280_temperature;BME280_humidity;BME280_pressure;Samples;Min_cycle;Max_cycle;Signal;HPM_P1;HPM_P2
2021/10/30 00:00:31;;;;;;;20.50;17.80;;;8.60;99.90;;;;;;5034605;28;20195;-57
2021/10/30 00:02:57;;;;;;;20.63;15.90;;;8.60;99.90;;;;;;5034653;28;20604;-59
2021/10/30 00:05:23;;;;;;;18.00;15.87;;;8.60;99.90;;;;;;5034715;28;20163;-55
2021/10/30 00:07:50;;;;;;;17.80;15.90;;;8.60;99.90;;;;;;5034610;28;20619;-56
2021/10/30 00:10:16;;;;;;;18.20;15.17;;;8.60;99.90;;;;;;5034805;28;20416;-56
2021/10/30 00:12:42;;;;;;;17.10;14.17;;;8.70;99.90;;;;;;5034237;28;20242;-56
2021/10/30 00:15:10;;;;;;;21.97;17.30;;;8.70;99.90;;;;;;5034738;28;20427;-55
2021/10/30 00:17:36;;;;;;;18.23;14.53;;;8.70;99.90;;;;;;5016830;28;20411;-56
2021/10/30 00:20:02;;;;;;;17.50;14.20;;;8.60;99.90;;;;;;5034020;28;20462;-55
2021/10/30 00:22:30;;;;;;;18.03;14.00;;;8.60;99.90;;;;;;5034814;28;20696;-55
2021/10/30 00:24:56;;;;;;;20.70;16.10;;;8.60;99.90;;;;;;5046892;23;20911;-57
2021/10/30 00:27:22;;;;;;;17.60;15.70;;;8.60;99.90;;;;;;5033842;28;20404;-58
2021/10/30 00:29:48;;;;;;;16.90;15.07;;;8.60;99.90;;;;;;5033867;28;20176;-55
2021/10/30 00:32:13;;;;;;;15.90;14.20;;;8.60;99.90;;;;;;5033606;28;20672;-53
2021/10/30 00:34:39;;;;;;;16.60;14.47;;;8.50;99.90;;;;;;5033734;28;20193;-54
2021/10/30 00:37:05;;;;;;;16.67;14.20;;;8.40;99.90;;;;;;5033952;28;20175;-56
2021/10/30 00:39:31;;;;;;;16.07;14.37;;;8.40;99.90;;;;;;5033800;28;20178;-56
2021/10/30 00:41:56;;;;;;;15.50;13.63;;;8.40;99.90;;;;;;5033845;28;20200;-57
2021/10/30 00:44:22;;;;;;;17.70;15.90;;;8.50;99.90;;;;;;5034056;28;20952;-56
2021/10/30 00:46:51;;;;;;;17.77;13.43;;;8.50;99.90;;;;;;5033478;28;20177;-54
2021/10/30 00:49:19;;;;;;;19.57;14.70;;;8.50;99.90;;;;;;5006996;28;20505;-56
2021/10/30 00:51:47;;;;;;;18.10;15.83;;;8.50;99.90;;;;;;5013208;28;20416;-57
2021/10/30 00:54:15;;;;;;;18.33;16.27;;;8.30;99.90;;;;;;5019096;28;20471;-57
2021/10/30 00:56:44;;;;;;;15.17;13.67;;;8.40;99.90;;;;;;5033408;28;20415;-56
2021/10/30 00:59:14;;;;;;;16.37;14.67;;;8.40;99.90;;;;;;5033532;28;20496;-58
2021/10/30 01:01:41;;;;;;;17.60;14.63;;;8.40;99.90;;;;;;5032766;28;20512;-58
2021/10/30 01:04:07;;;;;;;18.07;15.07;;;8.30;99.90;;;;;;5033317;28;20416;-57
2021/10/30 01:06:34;;;;;;;15.80;14.07;;;8.30;99.90;;;;;;5033326;28;20400;-56
2021/10/30 01:09:00;;;;;;;19.97;15.97;;;8.20;99.90;;;;;;5033512;28;20452;-57
2021/10/30 01:11:26;;;;;;;18.43;15.83;;;8.10;99.90;;;;;;5033236;28;20423;-58
2021/10/30 01:13:53;;;;;;;14.67;13.23;;;8.10;99.90;;;;;;5033415;28;20451;-58
2021/10/30 01:16:19;;;;;;;17.70;15.90;;;8.20;99.90;;;;;;5033484;28;20838;-56
2021/10/30 01:18:45;;;;;;;18.90;14.87;;;8.10;99.90;;;;;;5033056;28;20399;-58
2021/10/30 01:21:11;;;;;;;16.43;14.60;;;8.00;99.90;;;;;;5033383;28;20450;-57
2021/10/30 01:23:37;;;;;;;16.83;13.30;;;8.00;99.90;;;;;;5003865;28;20413;-56
2021/10/30 01:26:03;;;;;;;18.10;15.17;;;8.00;99.90;;;;;;5032855;28;20167;-58
2021/10/30 01:28:31;;;;;;;17.90;14.57;;;7.90;99.90;;;;;;5033391;28;20410;-58
2021/10/30 01:30:58;;;;;;;14.47;13.00;;;7.90;99.90;;;;;;5033282;28;20430;-58
2021/10/30 01:33:24;;;;;;;14.67;13.20;;;7.90;99.90;;;;;;5033181;28;20819;-57
2021/10/30 01:35:50;;;;;;;15.53;13.93;;;7.90;99.90;;;;;;5033306;28;20406;-56
2021/10/30 01:38:16;;;;;;;16.57;14.07;;;7.90;99.90;;;;;;5033037;28;20410;-58
2021/10/30 01:40:50;;;;;;;13.67;12.27;;;7.90;99.90;;;;;;5032914;28;20202;-58
2021/10/30 01:43:17;;;;;;;13.67;12.20;;;8.00;99.90;;;;;;5032970;28;20457;-58
2021/10/30 01:45:44;;;;;;;16.00;13.37;;;8.00;99.90;;;;;;5033161;28;20472;-57
2021/10/30 01:48:10;;;;;;;15.40;13.80;;;8.00;99.90;;;;;;5032833;28;20410;-57
2021/10/30 01:50:38;;;;;;;15.23;13.70;;;7.90;99.90;;;;;;5032872;28;20438;-58
2021/10/30 01:53:04;;;;;;;15.57;13.10;;;7.70;99.90;;;;;;5032891;28;20402;-56
2021/10/30 01:55:36;;;;;;;14.53;13.13;;;7.70;99.90;;;;;;5032621;28;20430;-57
2021/10/30 01:58:02;;;;;;;16.77;15.07;;;7.80;99.90;;;;;;5033139;28;20187;-56
2021/10/30 02:00:28;;;;;;;16.60;14.03;;;7.80;99.90;;;;;;5033218;28;20453;-56
2021/10/30 02:02:53;;;;;;;14.60;13.10;;;7.80;99.90;;;;;;5032590;28;20416;-57
2021/10/30 02:05:19;;;;;;;13.93;12.53;;;7.90;99.90;;;;;;5032907;28;20208;-57
2021/10/30 02:07:46;;;;;;;16.50;14.70;;;7.90;99.90;;;;;;5033032;28;20180;-55
2021/10/30 02:10:13;;;;;;;15.30;13.77;;;7.80;99.90;;;;;;5033223;28;20439;-57
2021/10/30 02:12:39;;;;;;;15.43;13.87;;;7.80;99.90;;;;;;5035688;28;20968;-57
2021/10/30 02:15:06;;;;;;;15.77;14.10;;;7.80;99.90;;;;;;5036454;28;20513;-57
2021/10/30 02:17:32;;;;;;;17.13;15.27;;;7.80;99.90;;;;;;5036221;28;20442;-57
2021/10/30 02:19:58;;;;;;;16.70;14.47;;;7.80;99.90;;;;;;5036553;28;20451;-56
2021/10/30 02:22:24;;;;;;;16.17;14.50;;;7.80;99.90;;;;;;5036609;28;20410;-53
2021/10/30 02:24:50;;;;;;;18.33;16.30;;;7.70;99.90;;;;;;5035757;28;20216;-57
2021/10/30 02:27:16;;;;;;;16.23;14.23;;;7.80;99.90;;;;;;5036250;28;20539;-57
2021/10/30 02:29:43;;;;;;;16.60;14.87;;;7.80;99.90;;;;;;5036486;28;20408;-58
2021/10/30 02:32:08;;;;;;;17.30;14.20;;;7.90;99.90;;;;;;5036187;28;20471;-58
2021/10/30 02:34:34;;;;;;;16.40;14.50;;;7.90;99.90;;;;;;5036308;28;20423;-56
2021/10/30 02:37:00;;;;;;;17.13;14.57;;;7.90;99.90;;;;;;5036165;28;20448;-56
2021/10/30 02:39:26;;;;;;;15.10;13.57;;;7.90;99.90;;;;;;5035945;28;20370;-55
2021/10/30 02:41:51;;;;;;;16.33;14.60;;;7.90;99.90;;;;;;5036094;28;20521;-57
2021/10/30 02:44:17;;;;;;;16.83;15.07;;;7.80;99.90;;;;;;5036334;28;20685;-57
2021/10/30 02:46:43;;;;;;;16.97;15.30;;;7.80;99.90;;;;;;5038484;28;20636;-58
2021/10/30 02:49:09;;;;;;;15.97;14.37;;;7.90;99.90;;;;;;5037939;28;20259;-57
2021/10/30 02:51:34;;;;;;;17.03;15.27;;;7.90;99.90;;;;;;5035982;28;20176;-57
2021/10/30 02:54:00;;;;;;;15.63;13.97;;;7.80;99.90;;;;;;5035448;28;20563;-56
2021/10/30 02:56:26;;;;;;;14.83;13.30;;;7.70;99.90;;;;;;5036622;28;20249;-57
2021/10/30 02:58:51;;;;;;;14.80;13.33;;;7.70;99.90;;;;;;5035960;28;20309;-57
2021/10/30 03:01:17;;;;;;;18.57;16.00;;;7.80;99.90;;;;;;5035933;28;20202;-58
2021/10/30 03:03:42;;;;;;;16.93;14.97;;;7.80;99.90;;;;;;5035604;28;20218;-56
2021/10/30 03:06:09;;;;;;;17.73;14.97;;;7.70;99.90;;;;;;5035818;28;20169;-55
2021/10/30 03:08:35;;;;;;;17.00;15.07;;;7.60;99.90;;;;;;5035652;28;20264;-54
2021/10/30 03:11:01;;;;;;;15.53;13.93;;;7.40;99.90;;;;;;5035657;28;20434;-52
2021/10/30 03:13:27;;;;;;;15.73;13.77;;;7.40;99.90;;;;;;5035975;28;20963;-57
2021/10/30 03:15:54;;;;;;;18.73;16.73;;;7.20;99.90;;;;;;5035693;28;20184;-55
2021/10/30 03:18:19;;;;;;;20.57;18.17;;;7.10;99.90;;;;;;5035247;28;20907;-56
2021/10/30 03:20:45;;;;;;;19.23;17.17;;;7.00;99.90;;;;;;5035690;28;20536;-56
2021/10/30 03:23:10;;;;;;;18.23;16.30;;;6.90;99.90;;;;;;5034521;28;20222;-57
2021/10/30 03:25:36;;;;;;;21.30;16.33;;;7.00;99.90;;;;;;5034019;28;20584;-57
2021/10/30 03:28:02;;;;;;;17.17;15.13;;;7.10;99.90;;;;;;5013447;28;20168;-59
2021/10/30 03:30:27;;;;;;;16.57;14.87;;;7.10;99.90;;;;;;5016258;28;20540;-57
2021/10/30 03:32:53;;;;;;;18.33;15.70;;;7.30;99.90;;;;;;5015015;28;20175;-56
2021/10/30 03:35:19;;;;;;;19.50;16.60;;;7.30;99.90;;;;;;5015182;28;20279;-56
2021/10/30 03:37:45;;;;;;;17.37;15.63;;;7.40;99.90;;;;;;5015453;28;20176;-58
2021/10/30 03:40:12;;;;;;;17.50;15.03;;;7.50;99.90;;;;;;5014249;28;20196;-57
2021/10/30 03:42:38;;;;;;;18.23;16.13;;;7.40;99.90;;;;;;5006185;28;20414;-58
2021/10/30 03:45:06;;;;;;;16.97;15.27;;;7.40;99.90;;;;;;4995679;28;20760;-59
2021/10/30 03:47:32;;;;;;;17.47;15.60;;;7.50;99.90;;;;;;4995148;28;20408;-58
2021/10/30 03:49:58;;;;;;;17.80;15.93;;;7.50;99.90;;;;;;4995410;28;20919;-57
2021/10/30 03:52:23;;;;;;;16.10;14.40;;;7.60;99.90;;;;;;4995342;28;20178;-56
2021/10/30 03:54:49;;;;;;;16.93;15.13;;;7.60;99.90;;;;;;5016017;28;20291;-55
2021/10/30 03:57:15;;;;;;;17.63;14.80;;;7.60;99.90;;;;;;5035146;28;20216;-56
2021/10/30 03:59:40;;;;;;;16.40;14.80;;;7.50;99.90;;;;;;5034730;28;20201;-59
2021/10/30 04:02:06;;;;;;;14.47;13.00;;;7.50;99.90;;;;;;5034556;28;20172;-58
2021/10/30 04:04:33;;;;;;;15.40;13.93;;;7.50;99.90;;;;;;5034713;28;20533;-58
2021/10/30 04:06:59;;;;;;;15.93;14.27;;;7.40;99.90;;;;;;5034387;28;20171;-58
2021/10/30 04:09:25;;;;;;;15.87;13.53;;;7.40;99.90;;;;;;5034314;28;20891;-56
2021/10/30 04:11:52;;;;;;;16.60;14.90;;;7.50;99.90;;;;;;5034250;28;20541;-56
2021/10/30 04:14:18;;;;;;;15.70;12.77;;;7.40;99.90;;;;;;5034069;28;20202;-56
2021/10/30 04:16:44;;;;;;;16.53;14.80;;;7.40;99.90;;;;;;5034447;28;20437;-57
2021/10/30 04:19:10;;;;;;;15.07;13.60;;;7.40;99.90;;;;;;5034011;28;20895;-58
2021/10/30 04:21:35;;;;;;;15.00;13.50;;;7.30;99.90;;;;;;5034061;28;20195;-58
2021/10/30 04:24:02;;;;;;;18.73;14.23;;;7.20;99.90;;;;;;5033762;28;20458;-58
2021/10/30 04:26:28;;;;;;;19.00;16.50;;;7.20;99.90;;;;;;5033015;28;20148;-58
2021/10/30 04:28:55;;;;;;;19.73;16.50;;;7.20;99.90;;;;;;5034008;28;20947;-56
2021/10/30 04:31:24;;;;;;;19.13;15.80;;;7.10;99.90;;;;;;5033717;28;20442;-58
2021/10/30 04:33:52;;;;;;;16.53;14.87;;;7.20;99.90;;;;;;5033817;28;20440;-57
2021/10/30 04:36:18;;;;;;;19.07;15.43;;;7.30;99.90;;;;;;5033210;28;20449;-58
2021/10/30 04:38:45;;;;;;;16.43;14.73;;;7.30;99.90;;;;;;5033073;28;20398;-55
2021/10/30 04:41:12;;;;;;;17.17;14.90;;;7.30;99.90;;;;;;5032757;28;20438;-54
2021/10/30 04:43:39;;;;;;;20.63;18.47;;;7.30;99.90;;;;;;5033125;28;20832;-58
2021/10/30 04:46:06;;;;;;;20.03;17.93;;;7.30;99.90;;;;;;5032923;28;20405;-55
2021/10/30 04:48:33;;;;;;;20.20;17.97;;;7.30;99.90;;;;;;5032928;28;20459;-58
2021/10/30 04:50:58;;;;;;;16.23;14.53;;;7.40;99.90;;;;;;5032983;28;20417;-56
2021/10/30 04:53:24;;;;;;;18.57;16.57;;;7.40;99.90;;;;;;5032785;28;20411;-59
2021/10/30 04:55:50;;;;;;;19.07;16.20;;;7.40;99.90;;;;;;5033118;28;20204;-58
2021/10/30 04:58:15;;;;;;;20.83;16.90;;;7.40;99.90;;;;;;5033024;28;20422;-57
2021/10/30 05:00:41;;;;;;;17.00;14.83;;;7.50;99.90;;;;;;5033245;28;20195;-57
2021/10/30 05:03:06;;;;;;;18.73;16.83;;;7.50;99.90;;;;;;5032815;28;20177;-56
2021/10/30 05:05:32;;;;;;;19.57;17.57;;;7.50;99.90;;;;;;5032646;28;20608;-55
2021/10/30 05:07:58;;;;;;;16.20;14.53;;;7.50;99.90;;;;;;5032553;28;20186;-59
2021/10/30 05:10:23;;;;;;;15.07;13.57;;;7.40;99.90;;;;;;5032381;28;20174;-56
2021/10/30 05:12:49;;;;;;;16.20;14.50;;;7.40;99.90;;;;;;5032604;28;20168;-58
2021/10/30 05:15:14;;;;;;;15.93;14.10;;;7.30;99.90;;;;;;5032446;28;20195;-56
2021/10/30 05:17:41;;;;;;;14.30;12.90;;;7.20;99.90;;;;;;5032581;28;20275;-58
2021/10/30 05:20:07;;;;;;;17.53;15.07;;;7.20;99.90;;;;;;5033198;28;20290;-59
2021/10/30 05:22:32;;;;;;;17.43;14.70;;;7.20;99.90;;;;;;5032562;28;20481;-56
2021/10/30 05:24:59;;;;;;;16.90;14.60;;;7.10;99.90;;;;;;4995754;28;1068118;-55
2021/10/30 05:27:25;;;;;;;16.93;15.10;;;7.00;99.90;;;;;;5034153;28;20175;-57
2021/10/30 05:29:50;;;;;;;16.13;13.67;;;7.00;99.90;;;;;;5008140;28;20410;-55
2021/10/30 05:32:16;;;;;;;15.20;13.70;;;7.10;99.90;;;;;;4994011;28;20174;-57
2021/10/30 05:34:42;;;;;;;16.43;14.73;;;7.00;99.90;;;;;;4993951;28;20228;-57
2021/10/30 05:37:08;;;;;;;19.10;15.17;;;7.10;99.90;;;;;;4994085;28;20172;-57
2021/10/30 05:39:36;;;;;;;18.60;15.70;;;7.10;99.90;;;;;;4993463;28;20169;-54
2021/10/30 05:42:03;;;;;;;15.70;14.10;;;6.90;99.90;;;;;;4993878;28;20571;-57
2021/10/30 05:44:28;;;;;;;18.70;15.50;;;6.90;99.90;;;;;;4993618;28;20504;-56
2021/10/30 05:46:54;;;;;;;18.70;16.67;;;6.80;99.90;;;;;;4995299;28;20532;-58
2021/10/30 05:49:20;;;;;;;18.23;15.73;;;6.80;99.90;;;;;;4997357;28;20165;-53
2021/10/30 05:51:45;;;;;;;17.40;15.50;;;6.80;99.90;;;;;;4980192;28;20179;-56
2021/10/30 05:54:11;;;;;;;16.90;15.20;;;6.70;99.90;;;;;;5008445;28;20225;-57
2021/10/30 05:56:37;;;;;;;20.83;17.60;;;6.60;99.90;;;;;;5036587;28;20175;-57
2021/10/30 05:59:02;;;;;;;20.47;18.20;;;6.60;99.90;;;;;;5036869;28;20164;-58
2021/10/30 06:01:28;;;;;;;18.63;15.50;;;6.60;99.90;;;;;;5036803;28;20290;-57
2021/10/30 06:03:54;;;;;;;16.20;14.53;;;6.70;99.90;;;;;;5018768;28;20543;-53
2021/10/30 06:06:20;;;;;;;17.17;15.30;;;6.70;99.90;;;;;;5036631;28;20258;-56
2021/10/30 06:08:45;;;;;;;16.80;14.70;;;6.70;99.90;;;;;;5036937;28;20221;-58
2021/10/30 06:11:11;;;;;;;15.27;13.40;;;6.80;99.90;;;;;;5036360;28;20175;-56
2021/10/30 06:13:36;;;;;;;17.60;15.23;;;6.90;99.90;;;;;;5036520;28;20179;-56
2021/10/30 06:16:02;;;;;;;18.83;14.13;;;7.00;99.90;;;;;;5036596;28;20171;-55
2021/10/30 06:18:28;;;;;;;15.63;14.03;;;7.10;99.90;;;;;;5036484;28;20167;-57
2021/10/30 06:20:53;;;;;;;20.20;16.33;;;7.10;99.90;;;;;;5036425;28;20191;-56
2021/10/30 06:23:19;;;;;;;17.60;15.77;;;7.10;99.90;;;;;;5036471;28;20175;-57
2021/10/30 06:25:45;;;;;;;16.83;14.77;;;7.00;99.90;;;;;;5069961;23;20339;-52
2021/10/30 06:28:12;;;;;;;17.73;14.30;;;7.10;99.90;;;;;;5036631;28;20156;-56
2021/10/30 06:30:38;;;;;;;15.33;13.73;;;6.90;99.90;;;;;;5036528;28;20414;-56
2021/10/30 06:33:03;;;;;;;17.97;14.17;;;6.90;99.90;;;;;;5035565;28;20460;-53
2021/10/30 06:35:29;;;;;;;15.83;14.17;;;6.90;99.90;;;;;;5024918;28;20585;-55
2021/10/30 06:37:56;;;;;;;16.33;14.63;;;7.10;99.90;;;;;;5036220;28;20171;-53
2021/10/30 06:40:22;;;;;;;19.60;15.70;;;7.20;99.90;;;;;;5035537;28;20234;-54
2021/10/30 06:42:47;;;;;;;16.93;15.17;;;7.30;99.90;;;;;;5035627;28;20405;-53
2021/10/30 06:45:13;;;;;;;16.40;14.70;;;7.50;99.90;;;;;;5035708;28;20798;-54
2021/10/30 06:47:39;;;;;;;16.60;14.90;;;7.50;99.90;;;;;;5036116;28;20247;-56
2021/10/30 06:50:07;;;;;;;14.37;12.83;;;7.60;99.90;;;;;;5035698;28;20498;-57
2021/10/30 06:52:37;;;;;;;14.90;13.50;;;7.60;99.90;;;;;;5036037;28;20222;-59
2021/10/30 06:55:10;;;;;;;16.73;14.50;;;7.70;99.90;;;;;;5034407;28;20451;-55
2021/10/30 06:57:36;;;;;;;16.23;14.57;;;7.70;99.90;;;;;;5034338;28;20435;-58
2021/10/30 07:00:06;;;;;;;18.03;15.90;;;7.80;99.90;;;;;;5035843;28;20426;-55
2021/10/30 07:02:32;;;;;;;14.33;12.90;;;7.70;99.90;;;;;;5035977;28;20409;-55
2021/10/30 07:04:59;;;;;;;15.60;14.03;;;7.80;99.90;;;;;;5035431;28;20962;-56
2021/10/30 07:07:25;;;;;;;15.70;13.87;;;7.80;99.90;;;;;;5035628;28;20403;-54
2021/10/30 07:09:54;;;;;;;18.27;16.40;;;7.80;99.90;;;;;;5035557;28;20907;-58
2021/10/30 07:12:20;;;;;;;17.97;14.70;;;7.90;99.90;;;;;;5035321;28;20933;-55
2021/10/30 07:14:47;;;;;;;19.60;16.10;;;7.70;99.90;;;;;;5035144;28;20432;-58
2021/10/30 07:17:12;;;;;;;17.13;15.33;;;7.60;99.90;;;;;;5035239;28;20407;-58
2021/10/30 07:19:38;;;;;;;14.27;12.77;;;7.70;99.90;;;;;;5035198;28;20841;-58
2021/10/30 07:22:03;;;;;;;17.17;15.30;;;7.90;99.90;;;;;;5035176;28;20247;-55
2021/10/30 07:24:29;;;;;;;16.17;14.47;;;8.10;99.90;;;;;;5034630;28;20243;-56
2021/10/30 07:26:55;;;;;;;16.80;14.13;;;8.20;99.90;;;;;;5032312;28;20153;-58
2021/10/30 07:29:20;;;;;;;16.27;14.67;;;8.00;99.90;;;;;;5034663;28;20169;-55
2021/10/30 07:31:46;;;;;;;16.40;13.77;;;8.10;99.90;;;;;;5035419;28;20177;-59
2021/10/30 07:34:11;;;;;;;16.70;13.97;;;8.00;99.90;;;;;;5035090;28;20170;-59
2021/10/30 07:36:37;;;;;;;16.17;14.60;;;7.90;99.90;;;;;;5035340;28;20652;-55
2021/10/30 07:39:03;;;;;;;16.23;13.80;;;8.10;99.90;;;;;;5035009;28;20183;-54
2021/10/30 07:41:29;;;;;;;15.47;13.80;;;8.20;99.90;;;;;;5034616;28;20451;-55
2021/10/30 07:43:54;;;;;;;16.23;12.80;;;8.30;99.90;;;;;;5034844;28;20251;-58
2021/10/30 07:46:22;;;;;;;14.57;13.07;;;8.40;99.90;;;;;;5034850;28;20244;-54
2021/10/30 07:48:48;;;;;;;15.67;13.10;;;8.60;99.90;;;;;;5034481;28;20169;-55
2021/10/30 07:51:13;;;;;;;16.37;14.63;;;8.80;99.90;;;;;;5034944;28;20916;-56
2021/10/30 07:53:39;;;;;;;14.03;12.70;;;8.90;99.90;;;;;;5034815;28;20413;-58
2021/10/30 07:56:05;;;;;;;14.10;12.70;;;9.10;99.90;;;;;;5034430;28;20212;-60
2021/10/30 07:58:30;;;;;;;15.83;13.20;;;9.20;99.90;;;;;;5034503;28;20176;-56
2021/10/30 08:00:56;;;;;;;15.50;13.77;;;9.30;99.90;;;;;;5033256;28;20304;-56
2021/10/30 08:03:22;;;;;;;15.53;13.90;;;9.50;99.90;;;;;;5034647;28;20175;-58
2021/10/30 08:05:47;;;;;;;14.10;12.60;;;9.50;99.90;;;;;;5034413;28;20523;-55
2021/10/30 08:08:13;;;;;;;14.43;12.93;;;9.50;99.90;;;;;;5034897;28;20209;-56
2021/10/30 08:10:39;;;;;;;13.47;12.03;;;9.60;99.90;;;;;;5033510;28;20210;-58
2021/10/30 08:13:09;;;;;;;12.77;11.53;;;9.80;99.90;;;;;;5034360;28;20163;-59
2021/10/30 08:15:35;;;;;;;13.67;12.30;;;9.90;99.90;;;;;;5034593;28;20433;-55
2021/10/30 08:18:01;;;;;;;16.93;13.83;;;10.00;99.90;;;;;;5034200;28;20965;-54
2021/10/30 08:20:26;;;;;;;13.37;11.97;;;10.20;99.90;;;;;;5033822;28;20450;-55
2021/10/30 08:22:52;;;;;;;16.10;14.40;;;10.20;99.90;;;;;;5050477;28;20173;-54
2021/10/30 08:25:17;;;;;;;14.70;12.20;;;10.30;99.90;;;;;;5049367;28;20252;-58
2021/10/30 08:27:43;;;;;;;13.17;11.87;;;10.50;99.90;;;;;;5049267;28;20249;-53
2021/10/30 08:30:10;;;;;;;13.53;12.30;;;10.60;99.90;;;;;;5033759;28;20448;-59
2021/10/30 08:32:35;;;;;;;13.10;11.70;;;10.60;99.90;;;;;;5033953;28;20919;-56
2021/10/30 08:35:01;;;;;;;13.80;12.43;;;10.50;99.90;;;;;;5034057;28;20422;-54
2021/10/30 08:37:28;;;;;;;14.03;12.63;;;10.50;99.90;;;;;;5033977;28;20166;-53
2021/10/30 08:39:53;;;;;;;12.83;11.53;;;10.40;99.90;;;;;;5033632;28;20497;-55
2021/10/30 08:42:22;;;;;;;15.03;12.30;;;10.50;99.90;;;;;;5034225;28;20835;-57
2021/10/30 08:44:49;;;;;;;16.27;12.00;;;10.50;99.90;;;;;;5034070;28;20191;-55
2021/10/30 08:47:17;;;;;;;13.37;11.97;;;10.70;99.90;;;;;;5033932;28;20471;-53
2021/10/30 08:49:44;;;;;;;13.07;11.67;;;10.90;99.90;;;;;;5033944;28;20908;-53
2021/10/30 08:52:09;;;;;;;14.77;13.27;;;11.00;99.90;;;;;;5033764;28;20424;-53
2021/10/30 08:54:36;;;;;;;15.23;13.60;;;11.20;99.90;;;;;;5033680;28;20425;-54
2021/10/30 08:57:02;;;;;;;12.93;11.60;;;11.30;99.90;;;;;;5033721;28;20167;-59
2021/10/30 08:59:42;;;;;;;11.97;10.87;;;11.20;99.90;;;;;;5033739;28;20914;-55
2021/10/30 09:02:14;;;;;;;15.37;12.93;;;11.40;99.90;;;;;;5033815;28;20442;-56
2021/10/30 09:04:40;;;;;;;13.50;11.83;;;11.60;99.90;;;;;;5033403;28;20802;-56
2021/10/30 09:07:08;;;;;;;12.80;11.37;;;11.70;99.90;;;;;;5033310;28;20405;-56
2021/10/30 09:09:36;;;;;;;13.97;12.57;;;11.80;99.90;;;;;;5034181;28;20165;-55
2021/10/30 09:12:03;;;;;;;13.53;12.10;;;11.80;99.90;;;;;;5033521;28;20416;-56
2021/10/30 09:14:31;;;;;;;16.83;14.60;;;11.90;99.90;;;;;;5033745;28;20456;-56
2021/10/30 09:17:18;;;;;;;14.97;13.00;;;11.80;99.90;;;;;;5033622;28;20783;-53
2021/10/30 09:19:49;;;;;;;15.57;13.97;;;11.60;99.90;;;;;;5033558;28;20514;-56
2021/10/30 09:22:20;;;;;;;15.47;13.67;;;11.60;99.90;;;;;;5032720;28;20403;-54
2021/10/30 09:24:58;;;;;;;14.50;12.93;;;11.50;99.90;;;;;;5032812;28;20461;-54
2021/10/30 09:27:44;;;;;;;19.17;12.80;;;11.60;99.90;;;;;;5026187;28;20756;-56
2021/10/30 09:30:11;;;;;;;14.47;13.07;;;11.70;99.90;;;;;;5032865;28;20913;-55
2021/10/30 09:32:37;;;;;;;17.50;15.67;;;11.70;99.90;;;;;;5033442;28;21072;-56
2021/10/30 09:35:03;;;;;;;15.03;13.37;;;11.60;99.90;;;;;;5033040;28;20432;-54
2021/10/30 09:37:34;;;;;;;17.30;13.67;;;11.70;99.90;;;;;;5033269;28;20399;-53
2021/10/30 09:40:16;;;;;;;15.03;13.40;;;11.80;99.90;;;;;;5033744;28;20786;-54
2021/10/30 09:42:42;;;;;;;15.00;13.60;;;11.80;99.90;;;;;;5033355;28;20406;-55
2021/10/30 09:45:12;;;;;;;13.97;12.47;;;11.90;99.90;;;;;;5033160;28;20417;-54
2021/10/30 09:47:57;;;;;;;15.43;13.47;;;12.00;99.90;;;;;;5034021;28;20906;-57
2021/10/30 09:50:29;;;;;;;14.40;12.20;;;12.00;99.90;;;;;;5036479;28;20401;-55
2021/10/30 09:52:55;;;;;;;14.93;13.43;;;12.00;99.90;;;;;;5034321;28;20477;-57
2021/10/30 09:55:22;;;;;;;13.90;12.50;;;12.00;99.90;;;;;;5032912;28;20790;-58
2021/10/30 09:58:00;;;;;;;15.40;13.90;;;12.10;99.90;;;;;;5032973;28;20480;-58
2021/10/30 10:00:26;;;;;;;14.47;13.07;;;12.10;99.90;;;;;;5033344;28;20448;-58
2021/10/30 10:02:57;;;;;;;18.13;13.30;;;12.10;99.90;;;;;;5031840;28;20449;-57
2021/10/30 10:05:23;;;;;;;14.77;13.17;;;12.10;99.90;;;;;;5033034;28;20497;-58
2021/10/30 10:07:49;;;;;;;14.57;13.10;;;12.20;99.90;;;;;;5033057;28;20969;-55
2021/10/30 10:10:15;;;;;;;16.97;14.43;;;12.30;99.90;;;;;;5032818;28;20418;-58
2021/10/30 10:12:42;;;;;;;14.80;12.97;;;12.10;99.90;;;;;;5033189;28;20468;-57
2021/10/30 10:15:12;;;;;;;15.70;14.10;;;12.20;99.90;;;;;;5032775;28;20447;-55
2021/10/30 10:17:37;;;;;;;15.50;13.83;;;12.30;99.90;;;;;;5032741;28;20417;-56
2021/10/30 10:20:05;;;;;;;16.63;14.47;;;12.30;99.90;;;;;;5032374;28;20898;-55
2021/10/30 10:22:31;;;;;;;15.37;13.77;;;12.20;99.90;;;;;;5031427;28;20183;-59
2021/10/30 10:25:32;;;;;;;14.03;12.40;;;12.20;99.90;;;;;;5032267;28;20983;-56
2021/10/30 10:28:17;;;;;;;19.80;15.07;;;12.10;99.90;;;;;;5032556;28;20270;-56
2021/10/30 10:31:19;;;;;;;16.53;12.77;;;12.00;99.90;;;;;;5032473;28;20879;-56
2021/10/30 10:34:15;;;;;;;15.40;13.90;;;12.20;99.90;;;;;;5035367;28;20390;-56
2021/10/30 10:36:42;;;;;;;17.93;12.63;;;12.40;99.90;;;;;;5035059;28;20521;-57
2021/10/30 10:39:12;;;;;;;14.47;12.97;;;12.50;99.90;;;;;;5035967;28;20438;-57
2021/10/30 10:41:37;;;;;;;15.40;13.80;;;12.60;99.90;;;;;;5035789;28;20445;-57
2021/10/30 10:44:04;;;;;;;16.90;14.70;;;12.70;99.90;;;;;;5035780;28;20494;-56
2021/10/30 10:46:31;;;;;;;17.10;14.60;;;12.80;99.90;;;;;;5035852;28;20179;-56
2021/10/30 10:49:17;;;;;;;15.93;14.23;;;12.60;99.90;;;;;;5034561;28;20938;-59
2021/10/30 10:52:02;;;;;;;14.33;12.47;;;12.60;99.90;;;;;;5035947;28;20479;-56
2021/10/30 10:54:54;;;;;;;17.80;15.03;;;12.50;99.90;;;;;;5035765;28;20505;-57
2021/10/30 10:57:28;;;;;;;15.50;14.00;;;12.40;99.90;;;;;;5035854;28;20423;-57
2021/10/30 11:00:14;;;;;;;16.20;14.60;;;12.30;99.90;;;;;;5036158;28;20825;-58
2021/10/30 11:02:48;;;;;;;17.33;15.53;;;12.30;99.90;;;;;;5034555;28;20398;-56
2021/10/30 11:05:23;;;;;;;19.40;14.83;;;12.10;99.90;;;;;;5036052;28;20418;-57
2021/10/30 11:07:49;;;;;;;16.73;15.03;;;12.10;99.90;;;;;;5036224;28;20431;-57
2021/10/30 11:10:26;;;;;;;16.03;14.30;;;12.00;99.90;;;;;;5035942;28;20398;-57
2021/10/30 11:13:09;;;;;;;18.60;15.40;;;12.00;99.90;;;;;;5035894;28;20145;-53
2021/10/30 11:15:51;;;;;;;17.63;15.90;;;12.20;99.90;;;;;;5035909;28;20508;-55
2021/10/30 11:18:32;;;;;;;18.13;14.73;;;12.10;99.90;;;;;;5035820;28;20766;-57
2021/10/30 11:23:54;;;;;;;16.43;14.73;;;12.20;99.90;;;;;;5035851;28;20466;-55
2021/10/30 11:26:24;;;;;;;15.90;14.20;;;12.40;99.90;;;;;;5035110;28;20940;-56
2021/10/30 11:28:50;;;;;;;15.43;14.03;;;12.50;99.90;;;;;;5032245;28;20418;-53
2021/10/30 11:31:16;;;;;;;16.03;14.43;;;12.50;99.90;;;;;;5035157;28;20410;-57
2021/10/30 11:33:43;;;;;;;18.57;14.13;;;12.40;99.90;;;;;;5035420;28;20776;-53
2021/10/30 11:36:15;;;;;;;15.67;13.50;;;12.50;99.90;;;;;;5034925;28;20193;-55
2021/10/30 11:38:44;;;;;;;14.97;13.43;;;12.40;99.90;;;;;;5035249;28;20413;-55
2021/10/30 11:41:14;;;;;;;16.73;14.30;;;12.60;99.90;;;;;;5034599;28;20473;-55
2021/10/30 11:43:40;;;;;;;14.63;13.07;;;12.70;99.90;;;;;;5034995;28;20910;-54
2021/10/30 11:46:15;;;;;;;15.13;13.53;;;12.80;99.90;;;;;;5033320;28;20434;-56
2021/10/30 11:48:47;;;;;;;15.57;13.30;;;12.80;99.90;;;;;;5035054;28;20481;-57
2021/10/30 11:51:15;;;;;;;15.43;13.83;;;12.90;99.90;;;;;;5034585;28;20469;-60
2021/10/30 11:53:49;;;;;;;16.13;14.43;;;12.90;99.90;;;;;;5035104;28;20417;-59
2021/10/30 11:56:25;;;;;;;14.97;13.40;;;12.90;99.90;;;;;;5034398;28;20873;-57
2021/10/30 11:58:52;;;;;;;15.17;13.77;;;12.70;99.90;;;;;;5034939;28;20750;-58
2021/10/30 12:01:39;;;;;;;16.93;14.37;;;12.70;99.90;;;;;;5033978;28;20458;-57
2021/10/30 12:04:13;;;;;;;16.33;14.60;;;12.80;99.90;;;;;;5034692;28;20802;-53
2021/10/30 12:06:41;;;;;;;17.90;16.10;;;12.60;99.90;;;;;;5034069;28;20440;-55
2021/10/30 12:09:16;;;;;;;18.40;16.40;;;12.30;99.90;;;;;;5034114;28;20395;-52
2021/10/30 12:11:42;;;;;;;18.63;15.93;;;12.20;99.90;;;;;;5033927;28;20410;-54
2021/10/30 12:14:08;;;;;;;18.53;15.57;;;12.20;99.90;;;;;;5034498;28;20401;-54
2021/10/30 12:16:34;;;;;;;19.40;16.90;;;12.20;99.90;;;;;;5034277;28;20406;-57
2021/10/30 12:19:04;;;;;;;19.07;16.70;;;12.30;99.90;;;;;;5031850;28;20780;-52
2021/10/30 12:21:37;;;;;;;20.20;17.20;;;12.40;99.90;;;;;;5025010;28;20511;-57
2021/10/30 12:24:11;;;;;;;19.50;15.70;;;12.50;99.90;;;;;;5033736;28;20410;-57
2021/10/30 12:26:58;;;;;;;17.07;15.30;;;12.50;99.90;;;;;;5035442;28;20399;-56
2021/10/30 12:29:27;;;;;;;18.50;16.60;;;12.40;99.90;;;;;;5033768;28;20496;-53
2021/10/30 12:32:00;;;;;;;17.90;15.70;;;12.40;99.90;;;;;;5034127;28;20406;-53
2021/10/30 12:34:26;;;;;;;20.10;15.57;;;12.40;99.90;;;;;;5033935;28;20513;-56
2021/10/30 12:36:55;;;;;;;17.53;15.67;;;12.50;99.90;;;;;;5032369;28;20484;-53
2021/10/30 12:39:22;;;;;;;18.90;16.80;;;12.60;99.90;;;;;;5034212;28;20167;-59